Friday, February 23, 2018, 3:03 PM EST
Back to Local

KBHB, Bar Harbor, Hancock County-bar Harbor Airport

Location: Ellsworth, ME, United States Lat: 44.45
Local Time: 3:03 PM EST (20:03 GMT) Lon: -68.367
Time Zone: US/Eastern Elev: 82 ft

Show me the last for .
Show Coded

Time T Td Feel RH Dir Speed Gust Alt SLP Vis Weather Sky Remarks
2018-02-23 13:56 30 16 24 55 130° 6 - 30.57 30.58 10 CLR None
2018-02-23 12:56 29 17 21 60 90° 8 - 30.62 30.63 10 CLR 6-hr Min Temp (1pm): 21.9°F
6-hr Max Temp (1pm): 28.9°F
2018-02-23 11:56 28 14 20 55 90° 8 - 30.66 30.67 10 CLR None
2018-02-23 10:56 27 11 20 50 110° 6 - 30.70 30.71 10 CLR None
2018-02-23 09:56 26 11 18 52 Variable 7 - 30.73 30.74 10 CLR None
2018-02-23 08:56 24 10 14 54 100° 9 - 30.75 30.76 10 CLR None
2018-02-23 07:56 23 9 14 54 70° 8 - 30.76 30.77 10 CLR None
2018-02-23 06:56 22 9 13 56 60° 8 - 30.76 30.78 10 CLR 6-hr Min Temp (7am): 19.0°F
6-hr Max Temp (7am): 25.0°F
2018-02-23 05:56 20 12 12 70 60° 6 - 30.75 30.76 10 CLR None
2018-02-23 04:56 21 13 16 70 10° 3 - 30.75 30.76 10 CLR None
2018-02-23 03:56 22 13 16 67 20° 5 - 30.73 30.75 10 CLR None
2018-02-23 02:56 23 13 17 64 360° 5 - 30.72 30.73 10 CLR None
2018-02-23 01:56 24 13 - 61 - Calm - 30.73 30.75 10 CLR None
2018-02-23 00:56 25 14 19 62 350° 5 - 30.71 30.73 10 CLR 6-hr Min Temp (1am): 25.0°F
6-hr Max Temp (1am): 30.0°F
2018-02-22 23:56 26 13 18 56 360° 7 - 30.70 30.71 10 CLR None
2018-02-22 22:56 27 12 22 52 350° 5 - 30.69 30.71 10 CLR None
2018-02-22 21:56 28 13 22 52 340° 6 - 30.69 30.70 10 CLR None
2018-02-22 20:56 28 14 22 55 340° 6 - 30.67 30.68 10 CLR None
2018-02-22 19:56 29 15 25 55 320° 3 - 30.66 30.67 8 CLR None
2018-02-22 18:56 30 15 25 53 320° 5 - 30.68 30.69 10 CLR 6-hr Min Temp (7pm): 30.0°F
6-hr Max Temp (7pm): 33.1°F
24-hr Min Temp (7pm): 30.0°F
24-hr Max Temp (7pm): 54.0°F
2018-02-22 17:56 31 15 - 51 - Calm - 30.65 30.67 10 CLR None
2018-02-22 16:56 32 15 29 49 330° 3 - 30.65 30.66 10 OVC110 None
2018-02-22 15:56 32 14 29 46 350° 3 - 30.63 30.64 10 BKN120 None

Support USWX by starting your Amazon purchase here.